Time;durP1;ratioP1;P1;durP2;ratioP2;P2;SDS_P1;SDS_P2;PMS_P1;PMS_P2;Temp;Humidity;BMP_temperature;BMP_pressure;BME280_temperature;BME280_humidity;BME280_pressure;Samples;Min_cycle;Max_cycle;Signal;HPM_P1;HPM_P2
2022/01/02 00:02:02;;;;;;;0.60;0.60;;;;;;;;;;1771624;79;26300;-34
2022/01/02 00:04:31;;;;;;;0.60;0.60;;;;;;;;;;1789355;78;26777;-31
2022/01/02 00:06:59;;;;;;;0.60;0.60;;;;;;;;;;1786915;80;26227;-31
2022/01/02 00:09:31;;;;;;;0.82;0.60;;;;;;;;;;1766046;79;26317;-32
2022/01/02 00:12:00;;;;;;;0.50;0.50;;;;;;;;;;1774736;79;26401;-32
2022/01/02 00:14:29;;;;;;;0.60;0.60;;;;;;;;;;1764193;79;26427;-34
2022/01/02 00:16:56;;;;;;;0.65;0.65;;;;;;;;;;1780231;79;26308;-31
2022/01/02 00:19:29;;;;;;;0.50;0.50;;;;;;;;;;1758512;79;26738;-33
2022/01/02 00:21:55;;;;;;;0.35;0.35;;;;;;;;;;1769678;79;26292;-31
2022/01/02 00:24:23;;;;;;;0.50;0.50;;;;;;;;;;1758533;79;26528;-32
2022/01/02 00:26:51;;;;;;;0.37;0.37;;;;;;;;;;1771981;79;26788;-32
2022/01/02 00:29:21;;;;;;;0.40;0.40;;;;;;;;;;1763365;79;26310;-33
2022/01/02 00:31:48;;;;;;;0.60;0.40;;;;;;;;;;1780481;79;26816;-32
2022/01/02 00:34:16;;;;;;;0.50;0.50;;;;;;;;;;1758431;79;26274;-32
2022/01/02 00:36:43;;;;;;;0.40;0.40;;;;;;;;;;1761770;80;26356;-33
2022/01/02 00:39:11;;;;;;;0.50;0.50;;;;;;;;;;1758511;79;26706;-31
2022/01/02 00:41:39;;;;;;;0.40;0.40;;;;;;;;;;1758672;79;26376;-32
2022/01/02 00:44:08;;;;;;;0.40;0.40;;;;;;;;;;1758259;79;26352;-35
2022/01/02 00:46:37;;;;;;;0.50;0.50;;;;;;;;;;1761381;79;26289;-32
2022/01/02 00:49:05;;;;;;;1.22;0.98;;;;;;;;;;1757885;79;26290;-33
2022/01/02 00:51:42;;;;;;;0.40;0.40;;;;;;;;;;1791077;79;26263;-32
2022/01/02 00:54:09;;;;;;;0.42;0.42;;;;;;;;;;1759518;79;26270;-34
2022/01/02 00:56:38;;;;;;;0.40;0.40;;;;;;;;;;1774488;79;26307;-31
2022/01/02 00:59:06;;;;;;;0.40;0.40;;;;;;;;;;1758867;79;26323;-33
2022/01/02 01:01:34;;;;;;;0.30;0.30;;;;;;;;;;1759924;79;26274;-32
2022/01/02 01:04:03;;;;;;;0.50;0.50;;;;;;;;;;1769663;79;27489;-31
2022/01/02 01:06:33;;;;;;;0.40;0.40;;;;;;;;;;1776106;80;26259;-32
2022/01/02 01:09:03;;;;;;;0.55;0.55;;;;;;;;;;1767916;79;26523;-32
2022/01/02 01:11:31;;;;;;;0.37;0.37;;;;;;;;;;1784089;79;26315;-34
2022/01/02 01:13:59;;;;;;;0.42;0.42;;;;;;;;;;1772221;79;26815;-34
2022/01/02 01:16:27;;;;;;;0.40;0.40;;;;;;;;;;1797571;79;26848;-32
2022/01/02 01:18:54;;;;;;;0.33;0.33;;;;;;;;;;1778306;79;26267;-32
2022/01/02 01:21:22;;;;;;;0.40;0.40;;;;;;;;;;1768117;79;26301;-32
2022/01/02 01:23:49;;;;;;;0.30;0.30;;;;;;;;;;1750428;79;26274;-32
2022/01/02 01:26:17;;;;;;;0.40;0.40;;;;;;;;;;1748767;80;26338;-33
2022/01/02 01:28:45;;;;;;;0.35;0.35;;;;;;;;;;1751346;80;26745;-31
2022/01/02 01:31:12;;;;;;;0.40;0.40;;;;;;;;;;1755218;80;26404;-34
2022/01/02 01:33:40;;;;;;;0.30;0.30;;;;;;;;;;1742270;80;26921;-33
2022/01/02 01:36:07;;;;;;;0.30;0.30;;;;;;;;;;1742729;80;26767;-33
2022/01/02 01:38:34;;;;;;;0.40;0.40;;;;;;;;;;1760739;80;26286;-33
2022/01/02 01:41:03;;;;;;;0.30;0.30;;;;;;;;;;1765343;79;26381;-34
2022/01/02 01:43:52;;;;;;;0.40;0.40;;;;;;;;;;1765216;80;26344;-32
2022/01/02 01:46:08;;;;;;;0.33;0.30;;;;;;;;;;1763215;80;26279;-34
2022/01/02 01:48:36;;;;;;;0.28;0.28;;;;;;;;;;1763211;80;26288;-32
2022/01/02 01:51:03;;;;;;;0.30;0.30;;;;;;;;;;1781734;79;26283;-32
2022/01/02 01:53:30;;;;;;;0.20;0.20;;;;;;;;;;1752300;78;26279;-33
2022/01/02 01:55:57;;;;;;;0.40;0.40;;;;;;;;;;1756507;80;26384;-32
2022/01/02 01:58:25;;;;;;;0.47;0.47;;;;;;;;;;1748299;80;26799;-33
2022/01/02 02:00:52;;;;;;;0.30;0.30;;;;;;;;;;1755826;81;26292;-35
2022/01/02 02:03:20;;;;;;;0.30;0.30;;;;;;;;;;1768241;81;26319;-32
2022/01/02 02:05:48;;;;;;;0.30;0.30;;;;;;;;;;1770092;80;26299;-32
2022/01/02 02:08:16;;;;;;;0.25;0.25;;;;;;;;;;1770409;80;26748;-33
2022/01/02 02:10:46;;;;;;;0.30;0.30;;;;;;;;;;1770729;80;26787;-32
2022/01/02 02:13:12;;;;;;;0.20;0.20;;;;;;;;;;1770072;80;26796;-34
2022/01/02 02:15:39;;;;;;;0.28;0.20;;;;;;;;;;1770396;81;26861;-32
2022/01/02 02:18:07;;;;;;;0.30;0.30;;;;;;;;;;1770820;80;26728;-31
2022/01/02 02:20:36;;;;;;;0.23;0.23;;;;;;;;;;1768557;81;26268;-33
2022/01/02 02:23:04;;;;;;;0.28;0.28;;;;;;;;;;1760084;81;26299;-32
2022/01/02 02:25:35;;;;;;;0.20;0.20;;;;;;;;;;1770274;81;26291;-32
2022/01/02 02:28:07;;;;;;;0.20;0.20;;;;;;;;;;1743244;81;26352;-33
2022/01/02 02:30:36;;;;;;;0.30;0.30;;;;;;;;;;1756479;81;26786;-33
2022/01/02 02:33:05;;;;;;;0.30;0.30;;;;;;;;;;1769180;81;26275;-32
2022/01/02 02:35:33;;;;;;;0.30;0.30;;;;;;;;;;1770558;80;26381;-34
2022/01/02 02:38:00;;;;;;;1.15;0.20;;;;;;;;;;1770611;81;26715;-34
2022/01/02 02:40:29;;;;;;;0.20;0.20;;;;;;;;;;1768874;81;26645;-31
2022/01/02 02:43:05;;;;;;;0.30;0.30;;;;;;;;;;1768872;80;26229;-34
2022/01/02 02:51:05;;;;;;;0.20;0.20;;;;;;;;;;1769891;81;26707;-34
2022/01/02 02:53:37;;;;;;;0.20;0.20;;;;;;;;;;1769782;80;26739;-33
2022/01/02 02:56:16;;;;;;;0.30;0.30;;;;;;;;;;1766379;80;26427;-34
2022/01/02 03:01:03;;;;;;;0.17;0.17;;;;;;;;;;1761338;81;26304;-32
2022/01/02 03:03:32;;;;;;;0.20;0.20;;;;;;;;;;1769318;81;26441;-32
2022/01/02 03:05:59;;;;;;;0.25;0.25;;;;;;;;;;1770662;80;26301;-32
2022/01/02 03:08:28;;;;;;;0.20;0.20;;;;;;;;;;1770605;80;26299;-35
2022/01/02 03:10:55;;;;;;;0.13;0.13;;;;;;;;;;1770768;81;26660;-33
2022/01/02 03:13:23;;;;;;;0.28;0.28;;;;;;;;;;1770486;81;26473;-33
2022/01/02 03:15:51;;;;;;;0.20;0.20;;;;;;;;;;1770750;81;26351;-33
2022/01/02 03:18:18;;;;;;;0.62;0.30;;;;;;;;;;1770758;80;26776;-33
2022/01/02 03:20:46;;;;;;;0.10;0.10;;;;;;;;;;1767976;80;26273;-34
2022/01/02 03:23:13;;;;;;;0.20;0.20;;;;;;;;;;1764235;81;26681;-34
2022/01/02 03:25:40;;;;;;;0.20;0.20;;;;;;;;;;1779665;80;26975;-34
2022/01/02 03:28:07;;;;;;;0.10;0.10;;;;;;;;;;1787153;79;26775;-32
2022/01/02 03:30:35;;;;;;;0.20;0.20;;;;;;;;;;1773922;79;26286;-34
2022/01/02 03:33:02;;;;;;;0.10;0.10;;;;;;;;;;1758231;81;26364;-32
2022/01/02 03:35:30;;;;;;;0.20;0.20;;;;;;;;;;1758377;80;26301;-32
2022/01/02 03:37:57;;;;;;;0.20;0.20;;;;;;;;;;1777740;80;27426;-34
2022/01/02 03:40:24;;;;;;;1.55;0.20;;;;;;;;;;1787119;80;26298;-35
2022/01/02 03:42:51;;;;;;;0.10;0.10;;;;;;;;;;1787083;79;26381;-32
2022/01/02 03:45:19;;;;;;;0.10;0.10;;;;;;;;;;1786878;79;26299;-33
2022/01/02 03:47:46;;;;;;;0.10;0.10;;;;;;;;;;1771478;80;26767;-33
2022/01/02 03:50:14;;;;;;;0.40;0.20;;;;;;;;;;1776792;80;26235;-35
2022/01/02 03:52:42;;;;;;;0.10;0.10;;;;;;;;;;1786998;80;26847;-34
2022/01/02 03:55:10;;;;;;;0.20;0.20;;;;;;;;;;1787248;80;26302;-33
2022/01/02 03:57:37;;;;;;;0.10;0.10;;;;;;;;;;1764738;80;26805;-33
2022/01/02 04:00:06;;;;;;;0.10;0.10;;;;;;;;;;1775727;80;26369;-33
2022/01/02 04:02:35;;;;;;;0.20;0.20;;;;;;;;;;1785188;79;27396;-33
2022/01/02 04:05:02;;;;;;;0.10;0.10;;;;;;;;;;1785491;80;26370;-32
2022/01/02 04:07:29;;;;;;;0.10;0.10;;;;;;;;;;1785447;79;26311;-33
2022/01/02 04:10:01;;;;;;;0.65;0.20;;;;;;;;;;1785519;79;26288;-33
2022/01/02 04:12:25;;;;;;;0.00;0.00;;;;;;;;;;1784700;80;26763;-34
2022/01/02 04:14:53;;;;;;;0.10;0.10;;;;;;;;;;1785389;80;26798;-34
2022/01/02 04:17:20;;;;;;;0.10;0.10;;;;;;;;;;1787181;79;26782;-32
2022/01/02 04:19:47;;;;;;;0.00;0.00;;;;;;;;;;1787163;79;26357;-33
2022/01/02 04:22:14;;;;;;;0.13;0.13;;;;;;;;;;1780968;80;26290;-35
2022/01/02 04:24:42;;;;;;;0.10;0.10;;;;;;;;;;1780699;79;26625;-33
2022/01/02 04:27:09;;;;;;;0.00;0.00;;;;;;;;;;1784756;79;26304;-33
2022/01/02 04:29:36;;;;;;;0.10;0.10;;;;;;;;;;1786939;80;26747;-32
2022/01/02 04:32:04;;;;;;;0.10;0.10;;;;;;;;;;1787257;80;26303;-32
2022/01/02 04:34:31;;;;;;;0.00;0.00;;;;;;;;;;1786950;80;27420;-33
2022/01/02 04:36:59;;;;;;;0.47;0.08;;;;;;;;;;1787052;79;26727;-34
2022/01/02 04:39:26;;;;;;;0.00;0.00;;;;;;;;;;1787342;79;26775;-32
2022/01/02 04:41:53;;;;;;;0.00;0.00;;;;;;;;;;1787155;80;26348;-33
2022/01/02 04:44:21;;;;;;;0.00;0.00;;;;;;;;;;1787135;80;26731;-33
2022/01/02 04:46:48;;;;;;;0.00;0.00;;;;;;;;;;1787133;80;26299;-32
2022/01/02 04:49:15;;;;;;;0.03;0.03;;;;;;;;;;1787325;79;26282;-33
2022/01/02 04:51:43;;;;;;;0.10;0.10;;;;;;;;;;1786964;80;26287;-33
2022/01/02 04:54:10;;;;;;;0.00;0.00;;;;;;;;;;1786909;80;26934;-33
2022/01/02 04:56:38;;;;;;;0.08;0.08;;;;;;;;;;1776486;79;26808;-34
2022/01/02 04:59:05;;;;;;;0.33;0.10;;;;;;;;;;1761930;80;26247;-34
2022/01/02 05:01:32;;;;;;;0.10;0.10;;;;;;;;;;1785613;79;26357;-34
2022/01/02 05:04:00;;;;;;;0.00;0.00;;;;;;;;;;1786427;79;26279;-33
2022/01/02 05:06:27;;;;;;;0.10;0.08;;;;;;;;;;1787120;80;26271;-33
2022/01/02 05:08:54;;;;;;;0.10;0.10;;;;;;;;;;1787223;80;26290;-33
2022/01/02 05:11:22;;;;;;;0.10;0.10;;;;;;;;;;1787058;80;26364;-33
2022/01/02 05:13:49;;;;;;;0.10;0.10;;;;;;;;;;1786798;80;26322;-32
2022/01/02 05:16:16;;;;;;;0.00;0.00;;;;;;;;;;1787199;80;26829;-33
2022/01/02 05:18:43;;;;;;;0.08;0.08;;;;;;;;;;1787344;79;26287;-34
2022/01/02 05:21:11;;;;;;;0.00;0.00;;;;;;;;;;1783457;80;26275;-32
2022/01/02 05:23:38;;;;;;;0.05;0.05;;;;;;;;;;1780435;79;26279;-32
2022/01/02 05:26:05;;;;;;;0.10;0.10;;;;;;;;;;1781783;79;26314;-32
2022/01/02 05:28:33;;;;;;;0.00;0.00;;;;;;;;;;1787181;80;26302;-32
2022/01/02 05:31:00;;;;;;;0.00;0.00;;;;;;;;;;1785828;80;26369;-33
2022/01/02 05:33:28;;;;;;;0.00;0.00;;;;;;;;;;1774016;80;26313;-33
2022/01/02 05:35:55;;;;;;;0.08;0.08;;;;;;;;;;1787270;79;26293;-33
2022/01/02 05:38:22;;;;;;;0.00;0.00;;;;;;;;;;1787047;80;26227;-33
2022/01/02 05:40:51;;;;;;;0.00;0.00;;;;;;;;;;1794979;79;26770;-32
2022/01/02 05:43:20;;;;;;;0.10;0.10;;;;;;;;;;1814700;78;26345;-34
2022/01/02 05:45:48;;;;;;;0.10;0.10;;;;;;;;;;1815935;79;26747;-34
2022/01/02 05:48:15;;;;;;;0.08;0.08;;;;;;;;;;1787218;80;26365;-34
2022/01/02 05:50:42;;;;;;;0.00;0.00;;;;;;;;;;1787199;80;26266;-32
2022/01/02 05:53:09;;;;;;;0.10;0.10;;;;;;;;;;1787075;80;26283;-32
2022/01/02 05:55:37;;;;;;;0.00;0.00;;;;;;;;;;1786956;80;26286;-32
2022/01/02 05:58:05;;;;;;;0.00;0.00;;;;;;;;;;1761635;80;26384;-33
2022/01/02 06:00:33;;;;;;;0.00;0.00;;;;;;;;;;1777555;80;26341;-34
2022/01/02 06:03:00;;;;;;;0.10;0.03;;;;;;;;;;1785799;79;26880;-33
2022/01/02 06:05:27;;;;;;;0.03;0.03;;;;;;;;;;1786846;80;26809;-32
2022/01/02 06:07:55;;;;;;;0.00;0.00;;;;;;;;;;1787431;80;26547;-32
2022/01/02 06:10:22;;;;;;;0.00;0.00;;;;;;;;;;1786827;79;26630;-33
2022/01/02 06:12:50;;;;;;;0.17;0.17;;;;;;;;;;1786742;79;26865;-33
2022/01/02 06:15:17;;;;;;;0.17;0.10;;;;;;;;;;1785848;80;26275;-34
2022/01/02 06:17:44;;;;;;;0.00;0.00;;;;;;;;;;1773146;79;26275;-33
2022/01/02 06:20:12;;;;;;;0.00;0.00;;;;;;;;;;1779125;79;26262;-34
2022/01/02 06:22:39;;;;;;;0.00;0.00;;;;;;;;;;1786761;79;26703;-33
2022/01/02 06:25:07;;;;;;;0.20;0.00;;;;;;;;;;1786821;79;26291;-33
2022/01/02 06:27:35;;;;;;;0.10;0.10;;;;;;;;;;1765032;80;26855;-33
2022/01/02 06:30:03;;;;;;;0.10;0.10;;;;;;;;;;1775124;80;26347;-32
2022/01/02 06:32:31;;;;;;;0.03;0.03;;;;;;;;;;1785005;79;26343;-33
2022/01/02 06:34:58;;;;;;;0.00;0.00;;;;;;;;;;1785168;79;26354;-32
2022/01/02 06:37:25;;;;;;;0.00;0.00;;;;;;;;;;1781442;79;26283;-33
2022/01/02 06:39:52;;;;;;;0.10;0.08;;;;;;;;;;1779835;79;26286;-33
2022/01/02 06:42:20;;;;;;;0.08;0.08;;;;;;;;;;1776745;79;26755;-33
2022/01/02 06:44:48;;;;;;;1.20;0.10;;;;;;;;;;1765389;79;26289;-32
2022/01/02 06:47:16;;;;;;;0.42;0.10;;;;;;;;;;1785804;80;26629;-33
2022/01/02 06:49:43;;;;;;;0.17;0.00;;;;;;;;;;1787358;80;26258;-32
2022/01/02 06:52:10;;;;;;;0.00;0.00;;;;;;;;;;1786986;80;26336;-33
2022/01/02 06:54:38;;;;;;;0.10;0.10;;;;;;;;;;1785162;80;26296;-33
2022/01/02 06:57:05;;;;;;;0.10;0.10;;;;;;;;;;1786496;80;26298;-33
2022/01/02 06:59:32;;;;;;;0.00;0.00;;;;;;;;;;1781782;79;26835;-33
2022/01/02 07:02:00;;;;;;;0.00;0.00;;;;;;;;;;1787095;79;26365;-33
2022/01/02 07:04:27;;;;;;;0.00;0.00;;;;;;;;;;1785599;79;26341;-34
2022/01/02 07:06:54;;;;;;;0.10;0.03;;;;;;;;;;1775057;79;26306;-32
2022/01/02 07:09:21;;;;;;;0.65;0.00;;;;;;;;;;1778943;79;26347;-33
2022/01/02 07:11:49;;;;;;;0.00;0.00;;;;;;;;;;1786741;79;26280;-33
2022/01/02 07:14:16;;;;;;;0.45;0.10;;;;;;;;;;1778715;79;26302;-34
2022/01/02 07:16:43;;;;;;;0.00;0.00;;;;;;;;;;1782144;79;26287;-33
2022/01/02 07:19:11;;;;;;;0.68;0.10;;;;;;;;;;1778447;79;26268;-32
2022/01/02 07:21:39;;;;;;;0.00;0.00;;;;;;;;;;1780352;79;26359;-35
2022/01/02 07:24:06;;;;;;;0.20;0.20;;;;;;;;;;1780066;79;26810;-32
2022/01/02 07:26:33;;;;;;;0.10;0.10;;;;;;;;;;1773469;79;26788;-32
2022/01/02 07:29:01;;;;;;;0.25;0.10;;;;;;;;;;1746788;80;26285;-35
2022/01/02 07:31:28;;;;;;;0.65;0.10;;;;;;;;;;1740433;80;26552;-34
2022/01/02 07:33:55;;;;;;;0.00;0.00;;;;;;;;;;1743467;80;26242;-33
2022/01/02 07:36:23;;;;;;;1.15;0.10;;;;;;;;;;1746556;80;26285;-33
2022/01/02 07:38:50;;;;;;;0.05;0.00;;;;;;;;;;1750782;80;26356;-32
2022/01/02 07:41:18;;;;;;;0.10;0.10;;;;;;;;;;1754694;81;26278;-34
2022/01/02 07:43:45;;;;;;;0.65;0.10;;;;;;;;;;1743380;80;26363;-33
2022/01/02 07:46:12;;;;;;;0.10;0.10;;;;;;;;;;1748961;80;26277;-35
2022/01/02 07:48:39;;;;;;;1.95;0.10;;;;;;;;;;1751324;80;26411;-33
2022/01/02 07:51:07;;;;;;;0.30;0.00;;;;;;;;;;1748259;80;26330;-34
2022/01/02 07:53:34;;;;;;;1.12;0.30;;;;;;;;;;1747311;80;26290;-32
2022/01/02 07:56:01;;;;;;;0.35;0.15;;;;;;;;;;1747397;80;26297;-34
2022/01/02 07:58:29;;;;;;;0.78;0.10;;;;;;;;;;1748063;80;27871;-33
2022/01/02 08:00:56;;;;;;;5.80;0.50;;;;;;;;;;1743332;80;26746;-33
2022/01/02 08:03:23;;;;;;;0.35;0.20;;;;;;;;;;1750581;80;26750;-34
2022/01/02 08:05:50;;;;;;;0.20;0.10;;;;;;;;;;1745573;80;26265;-33
2022/01/02 08:08:18;;;;;;;0.88;0.10;;;;;;;;;;1742924;80;26677;-33
2022/01/02 08:10:45;;;;;;;0.17;0.17;;;;;;;;;;1745759;80;26289;-35
2022/01/02 08:13:12;;;;;;;1.65;0.10;;;;;;;;;;1743333;80;26328;-35
2022/01/02 08:15:39;;;;;;;3.05;0.20;;;;;;;;;;1750097;80;26408;-35
2022/01/02 08:18:09;;;;;;;0.20;0.20;;;;;;;;;;1746928;80;26306;-33
2022/01/02 08:20:36;;;;;;;0.10;0.10;;;;;;;;;;1752169;80;26363;-30
2022/01/02 08:23:03;;;;;;;0.00;0.00;;;;;;;;;;1744064;80;26337;-32
2022/01/02 08:25:31;;;;;;;0.35;0.13;;;;;;;;;;1741992;80;26837;-31
2022/01/02 08:27:58;;;;;;;0.75;0.20;;;;;;;;;;1760633;79;26264;-32
2022/01/02 08:30:26;;;;;;;0.55;0.10;;;;;;;;;;1756809;79;26291;-33
2022/01/02 08:32:53;;;;;;;0.28;0.10;;;;;;;;;;1758529;80;26272;-32
2022/01/02 08:35:20;;;;;;;0.85;0.17;;;;;;;;;;1766554;80;26271;-31
2022/01/02 08:37:48;;;;;;;1.55;0.10;;;;;;;;;;1768962;80;26303;-31
2022/01/02 08:40:15;;;;;;;3.62;0.30;;;;;;;;;;1763458;80;26284;-31
2022/01/02 08:42:42;;;;;;;0.17;0.17;;;;;;;;;;1765556;79;26302;-32
2022/01/02 08:45:10;;;;;;;0.53;0.17;;;;;;;;;;1761280;80;26283;-32
2022/01/02 08:47:37;;;;;;;1.75;0.10;;;;;;;;;;1760301;80;26278;-31
2022/01/02 08:50:05;;;;;;;0.20;0.20;;;;;;;;;;1770192;80;26275;-30
2022/01/02 08:52:33;;;;;;;0.82;0.20;;;;;;;;;;1770108;80;26672;-31
2022/01/02 08:55:00;;;;;;;0.80;0.20;;;;;;;;;;1766405;80;26314;-31
2022/01/02 08:57:28;;;;;;;2.45;0.42;;;;;;;;;;1762958;80;26306;-31
2022/01/02 08:59:55;;;;;;;2.02;0.25;;;;;;;;;;1758956;80;26287;-31
2022/01/02 09:02:22;;;;;;;0.45;0.20;;;;;;;;;;1761958;80;26346;-31
2022/01/02 09:04:49;;;;;;;1.57;0.23;;;;;;;;;;1758471;80;26326;-31
2022/01/02 09:07:17;;;;;;;0.85;0.20;;;;;;;;;;1766491;80;26877;-33
2022/01/02 09:09:44;;;;;;;0.62;0.30;;;;;;;;;;1762679;80;26379;-32
2022/01/02 09:12:14;;;;;;;0.72;0.30;;;;;;;;;;1765008;80;25702;-33
2022/01/02 09:14:42;;;;;;;0.30;0.20;;;;;;;;;;1759480;79;26837;-31
2022/01/02 09:17:10;;;;;;;0.23;0.20;;;;;;;;;;1769607;80;26275;-32
2022/01/02 09:19:37;;;;;;;5.45;0.57;;;;;;;;;;1771004;81;26337;-31
2022/01/02 09:22:05;;;;;;;0.45;0.25;;;;;;;;;;1764714;81;26319;-31
2022/01/02 09:24:32;;;;;;;0.85;0.40;;;;;;;;;;1763603;79;26681;-31
2022/01/02 09:26:59;;;;;;;2.40;0.42;;;;;;;;;;1764806;80;26312;-31
2022/01/02 09:29:26;;;;;;;0.37;0.20;;;;;;;;;;1753223;80;26747;-31
2022/01/02 09:31:54;;;;;;;0.53;0.30;;;;;;;;;;1760592;80;26379;-32
2022/01/02 09:34:21;;;;;;;2.47;0.30;;;;;;;;;;1756972;80;26814;-32
2022/01/02 09:36:49;;;;;;;21.77;1.20;;;;;;;;;;1765533;80;26292;-31
2022/01/02 09:39:16;;;;;;;0.30;0.30;;;;;;;;;;1763688;80;26905;-31
2022/01/02 09:41:43;;;;;;;0.50;0.50;;;;;;;;;;1746776;81;26274;-31
2022/01/02 09:44:11;;;;;;;0.35;0.35;;;;;;;;;;1750701;81;26876;-31
2022/01/02 09:46:41;;;;;;;0.20;0.20;;;;;;;;;;1756394;81;26284;-31
2022/01/02 09:49:10;;;;;;;0.17;0.17;;;;;;;;;;1748229;81;26299;-31
2022/01/02 09:51:37;;;;;;;0.30;0.30;;;;;;;;;;1770894;80;26335;-32
2022/01/02 09:54:04;;;;;;;1.35;0.50;;;;;;;;;;1770921;80;26775;-31
2022/01/02 09:56:32;;;;;;;0.20;0.20;;;;;;;;;;1761638;81;26310;-31
2022/01/02 09:59:01;;;;;;;0.45;0.40;;;;;;;;;;1743090;82;26357;-31
2022/01/02 10:01:32;;;;;;;1.30;0.30;;;;;;;;;;1762051;81;26342;-35
2022/01/02 10:03:57;;;;;;;2.45;0.65;;;;;;;;;;1751684;80;26372;-31
2022/01/02 10:06:40;;;;;;;0.20;0.20;;;;;;;;;;1756314;80;26310;-33
2022/01/02 10:09:11;;;;;;;1.95;0.30;;;;;;;;;;1770351;80;26342;-31
2022/01/02 10:11:40;;;;;;;0.40;0.20;;;;;;;;;;1760771;80;26858;-31
2022/01/02 10:14:09;;;;;;;0.70;0.30;;;;;;;;;;1762693;80;26582;-31
2022/01/02 10:16:38;;;;;;;1.25;0.55;;;;;;;;;;1762215;80;26322;-33
2022/01/02 10:19:36;;;;;;;2.45;0.28;;;;;;;;;;1761720;80;26313;-31
2022/01/02 10:22:01;;;;;;;0.37;0.30;;;;;;;;;;1758810;80;26305;-30
2022/01/02 10:24:30;;;;;;;0.60;0.30;;;;;;;;;;1761685;80;27155;-33
2022/01/02 10:27:05;;;;;;;6.10;0.80;;;;;;;;;;1764157;80;26294;-30
2022/01/02 10:29:54;;;;;;;0.53;0.40;;;;;;;;;;1759142;79;26337;-32
2022/01/02 10:32:25;;;;;;;0.42;0.40;;;;;;;;;;1727675;83;26756;-32
2022/01/02 10:34:54;;;;;;;2.72;0.40;;;;;;;;;;1755626;80;26445;-31
2022/01/02 10:37:24;;;;;;;0.20;0.20;;;;;;;;;;1770493;80;26750;-30
2022/01/02 10:39:52;;;;;;;2.17;0.20;;;;;;;;;;1776369;80;26337;-32
2022/01/02 10:42:20;;;;;;;0.30;0.30;;;;;;;;;;1776348;80;26278;-31
2022/01/02 10:44:47;;;;;;;0.30;0.30;;;;;;;;;;1760321;80;26777;-31
2022/01/02 10:47:22;;;;;;;1.15;0.20;;;;;;;;;;1774174;80;26746;-33
2022/01/02 10:49:54;;;;;;;0.30;0.30;;;;;;;;;;1770773;80;26813;-31
2022/01/02 10:52:25;;;;;;;0.40;0.40;;;;;;;;;;1770351;80;26574;-31
2022/01/02 10:54:53;;;;;;;1.22;0.30;;;;;;;;;;1763010;80;27152;-31
2022/01/02 10:57:20;;;;;;;0.20;0.20;;;;;;;;;;1767371;80;26330;-32
2022/01/02 10:59:48;;;;;;;0.53;0.20;;;;;;;;;;1765016;80;25659;-30
2022/01/02 11:02:17;;;;;;;0.20;0.20;;;;;;;;;;1777058;79;26312;-31
2022/01/02 11:04:58;;;;;;;0.33;0.30;;;;;;;;;;1775542;79;26375;-33
2022/01/02 11:07:26;;;;;;;0.30;0.30;;;;;;;;;;1767311;79;26297;-33
2022/01/02 11:09:55;;;;;;;0.20;0.20;;;;;;;;;;1767814;79;26282;-32
2022/01/02 11:12:23;;;;;;;1.20;0.30;;;;;;;;;;1765924;80;26554;-31
2022/01/02 11:14:51;;;;;;;0.30;0.30;;;;;;;;;;1762670;80;26701;-31
2022/01/02 11:17:20;;;;;;;0.20;0.20;;;;;;;;;;1770421;80;26797;-33
2022/01/02 11:19:47;;;;;;;0.20;0.20;;;;;;;;;;1773694;79;26302;-31
2022/01/02 11:22:16;;;;;;;1.00;0.20;;;;;;;;;;1778082;79;26388;-33
2022/01/02 11:24:45;;;;;;;0.40;0.40;;;;;;;;;;1766640;80;26317;-31
2022/01/02 11:27:15;;;;;;;0.55;0.30;;;;;;;;;;1767512;79;26787;-31
2022/01/02 11:29:43;;;;;;;0.20;0.20;;;;;;;;;;1753430;79;26334;-31
2022/01/02 11:32:23;;;;;;;0.13;0.13;;;;;;;;;;1754438;80;26361;-31
2022/01/02 11:34:51;;;;;;;0.17;0.17;;;;;;;;;;1752693;79;27267;-33
2022/01/02 11:37:20;;;;;;;0.23;0.23;;;;;;;;;;1748211;79;26283;-33
2022/01/02 11:39:52;;;;;;;0.30;0.30;;;;;;;;;;1742792;80;26362;-31
2022/01/02 11:42:26;;;;;;;0.30;0.30;;;;;;;;;;1747422;80;26377;-31
2022/01/02 11:44:54;;;;;;;0.30;0.30;;;;;;;;;;1758312;80;27267;-33
2022/01/02 11:47:41;;;;;;;0.30;0.30;;;;;;;;;;1753845;79;26282;-32
2022/01/02 11:50:25;;;;;;;0.20;0.20;;;;;;;;;;1758937;80;26747;-32
2022/01/02 11:53:12;;;;;;;0.25;0.25;;;;;;;;;;1749584;80;26278;-32
2022/01/02 11:55:40;;;;;;;0.35;0.35;;;;;;;;;;1764722;81;26799;-32
2022/01/02 11:58:08;;;;;;;0.30;0.30;;;;;;;;;;1771195;80;26284;-32
2022/01/02 12:00:40;;;;;;;0.20;0.20;;;;;;;;;;1771160;80;26389;-33
2022/01/02 12:03:09;;;;;;;0.28;0.20;;;;;;;;;;1769913;81;26349;-31
2022/01/02 12:05:36;;;;;;;0.10;0.10;;;;;;;;;;1741500;82;26247;-32
2022/01/02 12:08:06;;;;;;;0.30;0.30;;;;;;;;;;1747672;81;26287;-32
2022/01/02 12:10:34;;;;;;;0.40;0.30;;;;;;;;;;1752242;79;26315;-33
2022/01/02 12:13:05;;;;;;;0.28;0.28;;;;;;;;;;1743075;82;26379;-32
2022/01/02 12:15:33;;;;;;;0.33;0.30;;;;;;;;;;1742781;81;26359;-32
2022/01/02 12:18:06;;;;;;;0.68;0.47;;;;;;;;;;1742938;81;26368;-32
2022/01/02 12:21:00;;;;;;;2.37;0.70;;;;;;;;;;1753957;79;26280;-34
2022/01/02 12:23:33;;;;;;;0.35;0.33;;;;;;;;;;1756105;79;26338;-33
2022/01/02 12:26:02;;;;;;;0.30;0.30;;;;;;;;;;1760378;79;26593;-32
2022/01/02 12:28:31;;;;;;;0.30;0.30;;;;;;;;;;1765552;81;26350;-32
2022/01/02 12:30:58;;;;;;;0.30;0.30;;;;;;;;;;1763709;80;26599;-32
2022/01/02 12:33:26;;;;;;;0.30;0.30;;;;;;;;;;1747476;80;25887;-34
2022/01/02 12:35:54;;;;;;;0.62;0.40;;;;;;;;;;1759201;80;26309;-32
2022/01/02 12:38:21;;;;;;;0.40;0.40;;;;;;;;;;1751960;80;26441;-32
2022/01/02 12:40:49;;;;;;;0.45;0.45;;;;;;;;;;1755233;80;26281;-32
2022/01/02 12:43:23;;;;;;;0.35;0.33;;;;;;;;;;1752910;80;26481;-32
2022/01/02 12:45:54;;;;;;;0.40;0.40;;;;;;;;;;1763662;79;26382;-32
2022/01/02 12:48:34;;;;;;;0.57;0.57;;;;;;;;;;1757412;80;26728;-32
2022/01/02 12:51:09;;;;;;;1.27;0.60;;;;;;;;;;1759166;80;26345;-32
2022/01/02 12:53:36;;;;;;;0.60;0.60;;;;;;;;;;1763626;79;26280;-32
2022/01/02 12:56:04;;;;;;;0.70;0.70;;;;;;;;;;1756424;79;26227;-32
2022/01/02 12:58:33;;;;;;;0.68;0.68;;;;;;;;;;1756812;80;26401;-34
2022/01/02 13:01:06;;;;;;;0.82;0.80;;;;;;;;;;1758668;80;26295;-33
2022/01/02 13:03:34;;;;;;;2.15;0.82;;;;;;;;;;1762320;79;25520;-34
2022/01/02 13:06:01;;;;;;;1.75;0.80;;;;;;;;;;1754740;80;26888;-33
2022/01/02 13:08:29;;;;;;;1.05;0.95;;;;;;;;;;1754218;80;26721;-32
2022/01/02 13:10:57;;;;;;;0.90;0.62;;;;;;;;;;1767806;81;26272;-33
2022/01/02 13:13:29;;;;;;;1.87;0.90;;;;;;;;;;1757607;80;26624;-34
2022/01/02 13:15:56;;;;;;;1.47;0.80;;;;;;;;;;1752279;80;26290;-33
2022/01/02 13:18:23;;;;;;;0.90;0.90;;;;;;;;;;1751025;81;26306;-32
2022/01/02 13:20:51;;;;;;;2.17;0.93;;;;;;;;;;1748807;80;26259;-32
2022/01/02 13:23:20;;;;;;;2.00;0.98;;;;;;;;;;1765455;80;26322;-32
2022/01/02 13:25:48;;;;;;;2.10;1.00;;;;;;;;;;1769934;80;26350;-32
2022/01/02 13:28:17;;;;;;;0.93;0.93;;;;;;;;;;1760600;81;25622;-33
2022/01/02 13:30:51;;;;;;;1.25;1.15;;;;;;;;;;1762322;81;26315;-34
2022/01/02 13:33:23;;;;;;;2.65;1.30;;;;;;;;;;1766393;81;26271;-32
2022/01/02 13:35:52;;;;;;;0.85;0.85;;;;;;;;;;1741596;81;26286;-32
2022/01/02 13:38:19;;;;;;;2.67;1.20;;;;;;;;;;1764313;81;26735;-33
2022/01/02 13:40:47;;;;;;;3.70;1.15;;;;;;;;;;1769971;80;26374;-34
2022/01/02 13:43:15;;;;;;;0.70;0.70;;;;;;;;;;1769668;81;26563;-35
2022/01/02 13:45:44;;;;;;;2.83;1.20;;;;;;;;;;1770789;79;26755;-33
2022/01/02 13:48:12;;;;;;;0.90;0.90;;;;;;;;;;1772368;79;26374;-32
2022/01/02 13:50:44;;;;;;;1.15;0.90;;;;;;;;;;1769780;81;26743;-32
2022/01/02 13:53:15;;;;;;;1.05;0.95;;;;;;;;;;1758818;81;26288;-32
2022/01/02 13:55:45;;;;;;;0.90;0.90;;;;;;;;;;1759631;81;26373;-32
2022/01/02 13:58:16;;;;;;;3.05;0.90;;;;;;;;;;1771120;81;26327;-33
2022/01/02 14:00:45;;;;;;;2.60;0.90;;;;;;;;;;1764493;79;26358;-33
2022/01/02 14:03:23;;;;;;;1.37;0.93;;;;;;;;;;1768508;79;26363;-32
2022/01/02 14:05:50;;;;;;;1.25;0.90;;;;;;;;;;1742780;80;26341;-32
2022/01/02 14:08:19;;;;;;;2.75;0.75;;;;;;;;;;1744382;80;26345;-34
2022/01/02 14:10:46;;;;;;;1.57;0.88;;;;;;;;;;1755263;80;26349;-34
2022/01/02 14:13:16;;;;;;;2.55;0.90;;;;;;;;;;1745373;80;26322;-32
2022/01/02 14:15:46;;;;;;;1.50;0.85;;;;;;;;;;1760671;80;26361;-32
2022/01/02 14:18:13;;;;;;;0.82;0.80;;;;;;;;;;1761425;80;26529;-33
2022/01/02 14:20:40;;;;;;;0.80;0.80;;;;;;;;;;1752174;80;26268;-32
2022/01/02 14:23:08;;;;;;;1.67;0.90;;;;;;;;;;1747470;80;26349;-33
2022/01/02 14:25:36;;;;;;;1.02;0.80;;;;;;;;;;1767438;80;26253;-32
2022/01/02 14:28:03;;;;;;;1.80;0.85;;;;;;;;;;1767366;80;26307;-32
2022/01/02 14:30:30;;;;;;;1.47;0.90;;;;;;;;;;1743194;80;26329;-32
2022/01/02 14:32:58;;;;;;;1.12;0.90;;;;;;;;;;1765759;80;26655;-32
2022/01/02 14:35:25;;;;;;;4.05;0.75;;;;;;;;;;1760705;80;26357;-32
2022/01/02 14:37:52;;;;;;;0.88;0.62;;;;;;;;;;1759719;80;26284;-32
2022/01/02 14:40:20;;;;;;;1.87;0.80;;;;;;;;;;1742598;80;26295;-32
2022/01/02 14:42:47;;;;;;;0.78;0.60;;;;;;;;;;1745885;80;26835;-32
2022/01/02 14:45:14;;;;;;;0.90;0.80;;;;;;;;;;1748792;80;26934;-34
2022/01/02 14:47:42;;;;;;;0.60;0.60;;;;;;;;;;1751204;80;26294;-32
2022/01/02 14:50:11;;;;;;;0.80;0.80;;;;;;;;;;1752118;80;26231;-33
2022/01/02 14:52:39;;;;;;;0.85;0.70;;;;;;;;;;1765430;80;26276;-31
2022/01/02 14:55:08;;;;;;;0.80;0.80;;;;;;;;;;1766359;80;26284;-34
2022/01/02 14:57:36;;;;;;;0.70;0.70;;;;;;;;;;1766341;80;26280;-32
2022/01/02 15:00:05;;;;;;;0.60;0.60;;;;;;;;;;1759393;80;26763;-33